sensor_id;sensor_type;location;lat;lon;timestamp;temperature;humidity
67279;DHT22;54193;53.746;10.058;2024-01-25T00:00:25;7.72;83.17
67279;DHT22;54193;53.746;10.058;2024-01-25T00:03:11;7.78;83.06
67279;DHT22;54193;53.746;10.058;2024-01-25T00:05:56;7.68;83.53
67279;DHT22;54193;53.746;10.058;2024-01-25T00:08:42;7.71;83.68
67279;DHT22;54193;53.746;10.058;2024-01-25T00:11:28;7.82;83.37
67279;DHT22;54193;53.746;10.058;2024-01-25T00:14:16;7.68;83.76
67279;DHT22;54193;53.746;10.058;2024-01-25T00:17:02;7.78;83.98
67279;DHT22;54193;53.746;10.058;2024-01-25T00:19:48;7.72;84.08
67279;DHT22;54193;53.746;10.058;2024-01-25T00:22:33;7.68;84.13
67279;DHT22;54193;53.746;10.058;2024-01-25T00:25:19;7.81;83.81
67279;DHT22;54193;53.746;10.058;2024-01-25T00:28:05;7.81;83.86
67279;DHT22;54193;53.746;10.058;2024-01-25T00:30:50;7.99;84.08
67279;DHT22;54193;53.746;10.058;2024-01-25T00:33:36;7.93;84.24
67279;DHT22;54193;53.746;10.058;2024-01-25T00:36:22;7.73;84.29
67279;DHT22;54193;53.746;10.058;2024-01-25T00:39:08;7.96;84.11
67279;DHT22;54193;53.746;10.058;2024-01-25T00:42:03;7.86;84.08
67279;DHT22;54193;53.746;10.058;2024-01-25T00:44:50;8.03;84.05
67279;DHT22;54193;53.746;10.058;2024-01-25T00:47:36;7.83;84.30
67279;DHT22;54193;53.746;10.058;2024-01-25T00:50:22;7.83;84.45
67279;DHT22;54193;53.746;10.058;2024-01-25T00:53:09;7.85;84.24
67279;DHT22;54193;53.746;10.058;2024-01-25T00:55:55;7.62;84.87
67279;DHT22;54193;53.746;10.058;2024-01-25T00:58:41;7.78;84.62
67279;DHT22;54193;53.746;10.058;2024-01-25T01:01:27;7.65;84.91
67279;DHT22;54193;53.746;10.058;2024-01-25T01:04:13;7.68;85.00
67279;DHT22;54193;53.746;10.058;2024-01-25T01:06:59;7.55;84.80
67279;DHT22;54193;53.746;10.058;2024-01-25T01:09:44;7.52;85.00
67279;DHT22;54193;53.746;10.058;2024-01-25T01:12:30;7.56;85.38
67279;DHT22;54193;53.746;10.058;2024-01-25T01:15:16;7.58;84.88
67279;DHT22;54193;53.746;10.058;2024-01-25T01:18:01;7.50;85.40
67279;DHT22;54193;53.746;10.058;2024-01-25T01:20:47;7.50;85.33
67279;DHT22;54193;53.746;10.058;2024-01-25T01:23:33;7.28;85.78
67279;DHT22;54193;53.746;10.058;2024-01-25T01:26:19;7.44;85.48
67279;DHT22;54193;53.746;10.058;2024-01-25T01:29:04;7.38;85.62
67279;DHT22;54193;53.746;10.058;2024-01-25T01:31:50;7.32;85.70
67279;DHT22;54193;53.746;10.058;2024-01-25T01:34:36;7.38;85.51
67279;DHT22;54193;53.746;10.058;2024-01-25T01:37:21;7.34;85.06
67279;DHT22;54193;53.746;10.058;2024-01-25T01:40:07;7.47;85.24
67279;DHT22;54193;53.746;10.058;2024-01-25T01:43:00;7.45;85.04
67279;DHT22;54193;53.746;10.058;2024-01-25T01:45:46;7.51;84.91
67279;DHT22;54193;53.746;10.058;2024-01-25T01:48:32;7.54;85.01
67279;DHT22;54193;53.746;10.058;2024-01-25T01:51:17;7.51;85.10
67279;DHT22;54193;53.746;10.058;2024-01-25T01:54:06;7.44;85.31
67279;DHT22;54193;53.746;10.058;2024-01-25T01:56:52;7.43;85.50
67279;DHT22;54193;53.746;10.058;2024-01-25T01:59:38;7.48;85.17
67279;DHT22;54193;53.746;10.058;2024-01-25T02:02:23;7.40;85.32
67279;DHT22;54193;53.746;10.058;2024-01-25T02:05:09;7.32;85.50
67279;DHT22;54193;53.746;10.058;2024-01-25T02:07:56;7.51;85.69
67279;DHT22;54193;53.746;10.058;2024-01-25T02:10:41;7.48;85.82
67279;DHT22;54193;53.746;10.058;2024-01-25T02:13:28;7.50;85.52
67279;DHT22;54193;53.746;10.058;2024-01-25T02:16:14;7.35;85.83
67279;DHT22;54193;53.746;10.058;2024-01-25T02:19:00;7.44;85.49
67279;DHT22;54193;53.746;10.058;2024-01-25T02:21:46;7.35;85.67
67279;DHT22;54193;53.746;10.058;2024-01-25T02:24:31;7.32;85.74
67279;DHT22;54193;53.746;10.058;2024-01-25T02:27:17;7.34;85.96
67279;DHT22;54193;53.746;10.058;2024-01-25T02:30:03;7.27;86.19
67279;DHT22;54193;53.746;10.058;2024-01-25T02:32:48;7.31;85.93
67279;DHT22;54193;53.746;10.058;2024-01-25T02:35:34;7.40;85.71
67279;DHT22;54193;53.746;10.058;2024-01-25T02:38:20;7.47;85.78
67279;DHT22;54193;53.746;10.058;2024-01-25T02:41:05;7.48;85.50
67279;DHT22;54193;53.746;10.058;2024-01-25T02:43:51;7.51;85.71
67279;DHT22;54193;53.746;10.058;2024-01-25T02:46:37;7.50;85.19
67279;DHT22;54193;53.746;10.058;2024-01-25T02:49:23;7.50;85.34
67279;DHT22;54193;53.746;10.058;2024-01-25T02:52:10;7.66;85.10
67279;DHT22;54193;53.746;10.058;2024-01-25T02:54:55;7.65;84.72
67279;DHT22;54193;53.746;10.058;2024-01-25T02:57:41;7.69;84.92
67279;DHT22;54193;53.746;10.058;2024-01-25T03:00:26;7.71;84.09
67279;DHT22;54193;53.746;10.058;2024-01-25T03:03:12;7.86;83.92
67279;DHT22;54193;53.746;10.058;2024-01-25T03:05:59;7.62;84.22
67279;DHT22;54193;53.746;10.058;2024-01-25T03:08:45;7.78;83.70
67279;DHT22;54193;53.746;10.058;2024-01-25T03:11:31;7.93;83.68
67279;DHT22;54193;53.746;10.058;2024-01-25T03:14:17;7.69;84.08
67279;DHT22;54193;53.746;10.058;2024-01-25T03:17:02;7.79;84.00
67279;DHT22;54193;53.746;10.058;2024-01-25T03:19:48;7.96;83.64
67279;DHT22;54193;53.746;10.058;2024-01-25T03:22:35;7.81;83.34
67279;DHT22;54193;53.746;10.058;2024-01-25T03:25:20;7.83;83.29
67279;DHT22;54193;53.746;10.058;2024-01-25T03:28:06;7.79;83.55
67279;DHT22;54193;53.746;10.058;2024-01-25T03:30:52;7.89;82.89
67279;DHT22;54193;53.746;10.058;2024-01-25T03:33:37;7.79;83.11
67279;DHT22;54193;53.746;10.058;2024-01-25T03:36:23;8.02;82.51
67279;DHT22;54193;53.746;10.058;2024-01-25T03:39:08;7.97;82.32
67279;DHT22;54193;53.746;10.058;2024-01-25T03:41:54;7.83;82.15
67279;DHT22;54193;53.746;10.058;2024-01-25T03:44:40;7.81;82.05
67279;DHT22;54193;53.746;10.058;2024-01-25T03:47:27;7.90;82.03
67279;DHT22;54193;53.746;10.058;2024-01-25T03:50:13;8.00;82.01
67279;DHT22;54193;53.746;10.058;2024-01-25T03:52:59;8.03;81.74
67279;DHT22;54193;53.746;10.058;2024-01-25T03:55:44;8.03;81.84
67279;DHT22;54193;53.746;10.058;2024-01-25T03:58:30;7.89;82.22
67279;DHT22;54193;53.746;10.058;2024-01-25T04:01:15;7.85;82.30
67279;DHT22;54193;53.746;10.058;2024-01-25T04:04:01;7.85;82.41
67279;DHT22;54193;53.746;10.058;2024-01-25T04:06:47;7.83;82.39
67279;DHT22;54193;53.746;10.058;2024-01-25T04:09:33;7.81;82.38
67279;DHT22;54193;53.746;10.058;2024-01-25T04:12:19;7.76;82.43
67279;DHT22;54193;53.746;10.058;2024-01-25T04:15:05;7.76;82.18
67279;DHT22;54193;53.746;10.058;2024-01-25T04:17:51;7.78;82.07
67279;DHT22;54193;53.746;10.058;2024-01-25T04:20:41;7.82;82.10
67279;DHT22;54193;53.746;10.058;2024-01-25T04:23:26;7.66;82.47
67279;DHT22;54193;53.746;10.058;2024-01-25T04:26:12;7.81;82.64
67279;DHT22;54193;53.746;10.058;2024-01-25T04:28:58;7.73;82.68
67279;DHT22;54193;53.746;10.058;2024-01-25T04:31:44;7.83;82.89
67279;DHT22;54193;53.746;10.058;2024-01-25T04:34:30;7.75;82.99
67279;DHT22;54193;53.746;10.058;2024-01-25T04:37:16;7.65;83.27
67279;DHT22;54193;53.746;10.058;2024-01-25T04:40:02;7.78;82.95
67279;DHT22;54193;53.746;10.058;2024-01-25T04:42:48;7.65;83.75
67279;DHT22;54193;53.746;10.058;2024-01-25T04:45:34;7.71;83.50
67279;DHT22;54193;53.746;10.058;2024-01-25T04:48:19;7.76;83.51
67279;DHT22;54193;53.746;10.058;2024-01-25T04:51:05;7.64;83.75
67279;DHT22;54193;53.746;10.058;2024-01-25T04:53:50;7.82;83.76
67279;DHT22;54193;53.746;10.058;2024-01-25T04:56:36;7.76;84.11
67279;DHT22;54193;53.746;10.058;2024-01-25T04:59:21;7.65;84.47
67279;DHT22;54193;53.746;10.058;2024-01-25T05:02:07;7.58;84.36
67279;DHT22;54193;53.746;10.058;2024-01-25T05:04:53;7.54;84.78
67279;DHT22;54193;53.746;10.058;2024-01-25T05:07:39;7.55;84.95
67279;DHT22;54193;53.746;10.058;2024-01-25T05:10:24;7.58;84.87
67279;DHT22;54193;53.746;10.058;2024-01-25T05:13:11;7.61;84.72
67279;DHT22;54193;53.746;10.058;2024-01-25T05:15:57;7.69;84.48
67279;DHT22;54193;53.746;10.058;2024-01-25T05:18:43;7.50;84.66
67279;DHT22;54193;53.746;10.058;2024-01-25T05:21:28;7.51;84.92
67279;DHT22;54193;53.746;10.058;2024-01-25T05:24:14;7.54;84.34
67279;DHT22;54193;53.746;10.058;2024-01-25T05:26:59;7.64;84.38
67279;DHT22;54193;53.746;10.058;2024-01-25T05:29:45;7.50;84.75
67279;DHT22;54193;53.746;10.058;2024-01-25T05:32:31;7.58;84.75
67279;DHT22;54193;53.746;10.058;2024-01-25T05:35:16;7.45;85.18
67279;DHT22;54193;53.746;10.058;2024-01-25T05:38:02;7.56;84.55
67279;DHT22;54193;53.746;10.058;2024-01-25T05:40:48;7.37;84.66
67279;DHT22;54193;53.746;10.058;2024-01-25T05:43:34;7.56;84.69
67279;DHT22;54193;53.746;10.058;2024-01-25T05:46:20;7.59;84.70
67279;DHT22;54193;53.746;10.058;2024-01-25T05:49:06;7.61;84.22
67279;DHT22;54193;53.746;10.058;2024-01-25T05:51:51;7.47;84.52
67279;DHT22;54193;53.746;10.058;2024-01-25T05:54:38;7.51;84.68
67279;DHT22;54193;53.746;10.058;2024-01-25T05:57:23;7.56;84.32
67279;DHT22;54193;53.746;10.058;2024-01-25T06:00:11;7.56;84.44
67279;DHT22;54193;53.746;10.058;2024-01-25T06:02:58;7.66;83.97
67279;DHT22;54193;53.746;10.058;2024-01-25T06:05:44;7.50;84.08
67279;DHT22;54193;53.746;10.058;2024-01-25T06:08:29;7.40;83.87
67279;DHT22;54193;53.746;10.058;2024-01-25T06:11:15;7.66;83.24
67279;DHT22;54193;53.746;10.058;2024-01-25T06:14:01;7.58;83.76
67279;DHT22;54193;53.746;10.058;2024-01-25T06:16:46;7.52;83.68
67279;DHT22;54193;53.746;10.058;2024-01-25T06:19:32;7.56;83.43
67279;DHT22;54193;53.746;10.058;2024-01-25T06:22:19;7.50;83.78
67279;DHT22;54193;53.746;10.058;2024-01-25T06:25:05;7.61;83.64
67279;DHT22;54193;53.746;10.058;2024-01-25T06:27:51;7.54;84.08
67279;DHT22;54193;53.746;10.058;2024-01-25T06:30:36;7.51;83.96
67279;DHT22;54193;53.746;10.058;2024-01-25T06:33:22;7.48;84.32
67279;DHT22;54193;53.746;10.058;2024-01-25T06:36:08;7.40;84.41
67279;DHT22;54193;53.746;10.058;2024-01-25T06:38:54;7.26;84.93
67279;DHT22;54193;53.746;10.058;2024-01-25T06:41:39;7.50;84.58
67279;DHT22;54193;53.746;10.058;2024-01-25T06:44:25;7.44;84.87
67279;DHT22;54193;53.746;10.058;2024-01-25T06:47:11;7.41;85.14
67279;DHT22;54193;53.746;10.058;2024-01-25T06:49:56;7.48;85.26
67279;DHT22;54193;53.746;10.058;2024-01-25T06:52:42;7.31;85.67
67279;DHT22;54193;53.746;10.058;2024-01-25T06:55:28;7.23;85.48
67279;DHT22;54193;53.746;10.058;2024-01-25T06:58:13;7.23;85.73
67279;DHT22;54193;53.746;10.058;2024-01-25T07:00:59;7.17;86.12
67279;DHT22;54193;53.746;10.058;2024-01-25T07:03:45;7.08;86.31
67279;DHT22;54193;53.746;10.058;2024-01-25T07:06:30;7.04;86.24
67279;DHT22;54193;53.746;10.058;2024-01-25T07:09:16;7.04;86.23
67279;DHT22;54193;53.746;10.058;2024-01-25T07:12:02;7.10;86.37
67279;DHT22;54193;53.746;10.058;2024-01-25T07:14:47;7.00;86.36
67279;DHT22;54193;53.746;10.058;2024-01-25T07:17:33;7.07;86.42
67279;DHT22;54193;53.746;10.058;2024-01-25T07:20:19;7.01;86.49
67279;DHT22;54193;53.746;10.058;2024-01-25T07:23:04;7.08;86.33
67279;DHT22;54193;53.746;10.058;2024-01-25T07:25:50;7.13;86.28
67279;DHT22;54193;53.746;10.058;2024-01-25T07:28:35;7.01;86.46
67279;DHT22;54193;53.746;10.058;2024-01-25T07:31:21;7.28;85.87
67279;DHT22;54193;53.746;10.058;2024-01-25T07:34:07;7.13;85.98
67279;DHT22;54193;53.746;10.058;2024-01-25T07:36:52;7.07;86.07
67279;DHT22;54193;53.746;10.058;2024-01-25T07:39:38;7.04;86.32
67279;DHT22;54193;53.746;10.058;2024-01-25T07:42:24;7.03;86.54
67279;DHT22;54193;53.746;10.058;2024-01-25T07:45:09;7.08;86.53
67279;DHT22;54193;53.746;10.058;2024-01-25T07:47:55;7.03;86.52
67279;DHT22;54193;53.746;10.058;2024-01-25T07:50:41;7.16;86.27
67279;DHT22;54193;53.746;10.058;2024-01-25T07:53:27;7.16;86.40
67279;DHT22;54193;53.746;10.058;2024-01-25T07:56:12;7.20;86.34
67279;DHT22;54193;53.746;10.058;2024-01-25T07:58:58;7.31;86.15
67279;DHT22;54193;53.746;10.058;2024-01-25T08:01:45;7.45;85.83
67279;DHT22;54193;53.746;10.058;2024-01-25T08:04:31;7.45;86.01
67279;DHT22;54193;53.746;10.058;2024-01-25T08:07:16;7.48;86.09
67279;DHT22;54193;53.746;10.058;2024-01-25T08:10:03;7.44;86.41
67279;DHT22;54193;53.746;10.058;2024-01-25T08:12:49;7.41;86.69
67279;DHT22;54193;53.746;10.058;2024-01-25T08:15:35;7.43;86.46
67279;DHT22;54193;53.746;10.058;2024-01-25T08:18:21;7.23;86.10
67279;DHT22;54193;53.746;10.058;2024-01-25T08:21:08;7.38;86.26
67279;DHT22;54193;53.746;10.058;2024-01-25T08:23:53;7.43;86.40
67279;DHT22;54193;53.746;10.058;2024-01-25T08:26:39;7.34;86.53
67279;DHT22;54193;53.746;10.058;2024-01-25T08:29:25;7.27;87.25
67279;DHT22;54193;53.746;10.058;2024-01-25T08:32:11;7.13;87.12
67279;DHT22;54193;53.746;10.058;2024-01-25T08:34:56;7.37;86.91
67279;DHT22;54193;53.746;10.058;2024-01-25T08:37:42;7.37;87.43
67279;DHT22;54193;53.746;10.058;2024-01-25T08:40:28;7.43;87.19
67279;DHT22;54193;53.746;10.058;2024-01-25T08:43:14;7.45;86.64
67279;DHT22;54193;53.746;10.058;2024-01-25T08:46:00;7.34;87.13
67279;DHT22;54193;53.746;10.058;2024-01-25T08:48:45;7.17;87.36
67279;DHT22;54193;53.746;10.058;2024-01-25T08:51:31;7.27;87.00
67279;DHT22;54193;53.746;10.058;2024-01-25T08:54:17;7.30;87.55
67279;DHT22;54193;53.746;10.058;2024-01-25T08:57:05;7.16;87.43
67279;DHT22;54193;53.746;10.058;2024-01-25T08:59:51;7.11;87.51
67279;DHT22;54193;53.746;10.058;2024-01-25T09:02:37;7.28;87.40
67279;DHT22;54193;53.746;10.058;2024-01-25T09:05:23;7.44;87.27
67279;DHT22;54193;53.746;10.058;2024-01-25T09:08:08;7.16;87.25
67279;DHT22;54193;53.746;10.058;2024-01-25T09:10:57;7.21;87.15
67279;DHT22;54193;53.746;10.058;2024-01-25T09:13:43;7.43;86.75
67279;DHT22;54193;53.746;10.058;2024-01-25T09:16:30;7.31;86.94
67279;DHT22;54193;53.746;10.058;2024-01-25T09:19:16;7.52;86.73
67279;DHT22;54193;53.746;10.058;2024-01-25T09:22:02;7.73;86.75
67279;DHT22;54193;53.746;10.058;2024-01-25T09:24:49;7.66;85.56
67279;DHT22;54193;53.746;10.058;2024-01-25T09:27:38;7.62;85.98
67279;DHT22;54193;53.746;10.058;2024-01-25T09:30:24;7.78;85.51
67279;DHT22;54193;53.746;10.058;2024-01-25T09:33:09;7.68;85.26
67279;DHT22;54193;53.746;10.058;2024-01-25T09:35:55;7.59;86.22
67279;DHT22;54193;53.746;10.058;2024-01-25T09:38:41;7.59;86.01
67279;DHT22;54193;53.746;10.058;2024-01-25T09:41:27;7.81;86.03
67279;DHT22;54193;53.746;10.058;2024-01-25T09:44:13;7.97;85.45
67279;DHT22;54193;53.746;10.058;2024-01-25T09:47:03;7.87;85.57
67279;DHT22;54193;53.746;10.058;2024-01-25T09:49:51;7.87;85.27
67279;DHT22;54193;53.746;10.058;2024-01-25T09:52:38;7.89;85.76
67279;DHT22;54193;53.746;10.058;2024-01-25T09:55:25;7.85;86.19
67279;DHT22;54193;53.746;10.058;2024-01-25T09:58:10;7.72;85.92
67279;DHT22;54193;53.746;10.058;2024-01-25T10:01:00;7.87;85.38
67279;DHT22;54193;53.746;10.058;2024-01-25T10:03:45;7.99;85.17
67279;DHT22;54193;53.746;10.058;2024-01-25T10:06:31;8.20;84.91
67279;DHT22;54193;53.746;10.058;2024-01-25T10:09:17;8.04;84.42
67279;DHT22;54193;53.746;10.058;2024-01-25T10:12:03;8.07;84.47
67279;DHT22;54193;53.746;10.058;2024-01-25T10:14:48;7.99;85.54
67279;DHT22;54193;53.746;10.058;2024-01-25T10:17:34;8.03;84.43
67279;DHT22;54193;53.746;10.058;2024-01-25T10:20:20;8.24;83.92
67279;DHT22;54193;53.746;10.058;2024-01-25T10:23:10;7.94;85.40
67279;DHT22;54193;53.746;10.058;2024-01-25T10:25:58;7.79;85.39
67279;DHT22;54193;53.746;10.058;2024-01-25T10:28:51;7.89;85.24
67279;DHT22;54193;53.746;10.058;2024-01-25T10:31:41;8.10;84.99
67279;DHT22;54193;53.746;10.058;2024-01-25T10:34:28;8.10;84.97
67279;DHT22;54193;53.746;10.058;2024-01-25T10:37:14;8.26;84.37
67279;DHT22;54193;53.746;10.058;2024-01-25T10:40:01;8.27;84.96
67279;DHT22;54193;53.746;10.058;2024-01-25T10:42:47;8.52;84.15
67279;DHT22;54193;53.746;10.058;2024-01-25T10:45:33;8.03;85.41
67279;DHT22;54193;53.746;10.058;2024-01-25T10:48:19;8.24;85.13
67279;DHT22;54193;53.746;10.058;2024-01-25T10:51:04;8.26;84.57
67279;DHT22;54193;53.746;10.058;2024-01-25T10:53:50;8.26;84.54
67279;DHT22;54193;53.746;10.058;2024-01-25T10:56:36;8.13;84.61
67279;DHT22;54193;53.746;10.058;2024-01-25T10:59:22;8.34;84.54
67279;DHT22;54193;53.746;10.058;2024-01-25T11:02:10;8.58;84.60
67279;DHT22;54193;53.746;10.058;2024-01-25T11:04:56;8.40;85.27
67279;DHT22;54193;53.746;10.058;2024-01-25T11:07:45;8.44;84.14
67279;DHT22;54193;53.746;10.058;2024-01-25T11:10:35;7.94;84.48
67279;DHT22;54193;53.746;10.058;2024-01-25T11:13:24;8.37;84.23
67279;DHT22;54193;53.746;10.058;2024-01-25T11:16:15;7.87;84.72
67279;DHT22;54193;53.746;10.058;2024-01-25T11:19:04;8.17;83.79
67279;DHT22;54193;53.746;10.058;2024-01-25T11:21:52;8.24;84.20
67279;DHT22;54193;53.746;10.058;2024-01-25T11:24:38;8.28;84.51
67279;DHT22;54193;53.746;10.058;2024-01-25T11:27:24;8.27;84.39
67279;DHT22;54193;53.746;10.058;2024-01-25T11:30:10;8.30;85.38
67279;DHT22;54193;53.746;10.058;2024-01-25T11:32:58;8.47;84.97
67279;DHT22;54193;53.746;10.058;2024-01-25T11:35:54;8.41;84.96
67279;DHT22;54193;53.746;10.058;2024-01-25T11:38:42;8.30;85.03
67279;DHT22;54193;53.746;10.058;2024-01-25T11:41:28;8.34;85.24
67279;DHT22;54193;53.746;10.058;2024-01-25T11:44:13;8.38;84.99
67279;DHT22;54193;53.746;10.058;2024-01-25T11:46:59;8.44;85.16
67279;DHT22;54193;53.746;10.058;2024-01-25T11:49:50;8.28;85.20
67279;DHT22;54193;53.746;10.058;2024-01-25T11:52:36;8.44;85.57
67279;DHT22;54193;53.746;10.058;2024-01-25T11:55:22;8.48;84.49
67279;DHT22;54193;53.746;10.058;2024-01-25T11:58:08;8.52;84.83
67279;DHT22;54193;53.746;10.058;2024-01-25T12:00:54;8.36;85.23
67279;DHT22;54193;53.746;10.058;2024-01-25T12:03:40;8.34;85.04
67279;DHT22;54193;53.746;10.058;2024-01-25T12:06:26;8.21;85.59
67279;DHT22;54193;53.746;10.058;2024-01-25T12:09:15;8.34;85.68
67279;DHT22;54193;53.746;10.058;2024-01-25T12:12:04;8.73;85.28
67279;DHT22;54193;53.746;10.058;2024-01-25T12:14:50;8.52;84.63
67279;DHT22;54193;53.746;10.058;2024-01-25T12:17:38;8.34;85.36
67279;DHT22;54193;53.746;10.058;2024-01-25T12:20:26;8.40;84.45
67279;DHT22;54193;53.746;10.058;2024-01-25T12:23:12;8.58;85.11
67279;DHT22;54193;53.746;10.058;2024-01-25T12:26:03;8.85;84.29
67279;DHT22;54193;53.746;10.058;2024-01-25T12:28:49;8.87;83.58
67279;DHT22;54193;53.746;10.058;2024-01-25T12:31:35;8.59;83.61
67279;DHT22;54193;53.746;10.058;2024-01-25T12:34:20;8.72;84.19
67279;DHT22;54193;53.746;10.058;2024-01-25T12:37:07;8.54;84.21
67279;DHT22;54193;53.746;10.058;2024-01-25T12:39:53;8.49;84.57
67279;DHT22;54193;53.746;10.058;2024-01-25T12:42:39;8.52;84.50
67279;DHT22;54193;53.746;10.058;2024-01-25T12:45:25;8.41;83.84
67279;DHT22;54193;53.746;10.058;2024-01-25T12:48:10;8.24;85.07
67279;DHT22;54193;53.746;10.058;2024-01-25T12:50:56;8.10;84.64
67279;DHT22;54193;53.746;10.058;2024-01-25T12:53:42;8.00;85.03
67279;DHT22;54193;53.746;10.058;2024-01-25T12:56:27;7.94;85.21
67279;DHT22;54193;53.746;10.058;2024-01-25T12:59:13;7.94;85.65
67279;DHT22;54193;53.746;10.058;2024-01-25T13:01:59;7.97;85.51
67279;DHT22;54193;53.746;10.058;2024-01-25T13:04:44;7.96;85.12
67279;DHT22;54193;53.746;10.058;2024-01-25T13:07:30;8.20;84.73
67279;DHT22;54193;53.746;10.058;2024-01-25T13:10:15;8.11;84.71
67279;DHT22;54193;53.746;10.058;2024-01-25T13:13:01;8.10;85.27
67279;DHT22;54193;53.746;10.058;2024-01-25T13:15:47;8.14;85.56
67279;DHT22;54193;53.746;10.058;2024-01-25T13:18:32;8.33;85.08
67279;DHT22;54193;53.746;10.058;2024-01-25T13:21:21;8.40;84.73
67279;DHT22;54193;53.746;10.058;2024-01-25T13:24:07;8.21;85.06
67279;DHT22;54193;53.746;10.058;2024-01-25T13:26:52;8.17;85.35
67279;DHT22;54193;53.746;10.058;2024-01-25T13:29:38;8.20;85.27
67279;DHT22;54193;53.746;10.058;2024-01-25T13:32:23;8.11;85.95
67279;DHT22;54193;53.746;10.058;2024-01-25T13:35:09;8.20;85.08
67279;DHT22;54193;53.746;10.058;2024-01-25T13:37:55;8.10;85.74
67279;DHT22;54193;53.746;10.058;2024-01-25T13:40:46;8.14;85.51
67279;DHT22;54193;53.746;10.058;2024-01-25T13:43:31;8.03;85.63
67279;DHT22;54193;53.746;10.058;2024-01-25T13:46:17;8.09;85.49
67279;DHT22;54193;53.746;10.058;2024-01-25T13:49:02;8.11;85.81
67279;DHT22;54193;53.746;10.058;2024-01-25T13:51:48;8.07;85.55
67279;DHT22;54193;53.746;10.058;2024-01-25T13:54:34;8.23;84.86
67279;DHT22;54193;53.746;10.058;2024-01-25T13:57:20;8.16;84.86
67279;DHT22;54193;53.746;10.058;2024-01-25T14:00:09;8.04;85.08
67279;DHT22;54193;53.746;10.058;2024-01-25T14:02:55;8.11;85.34
67279;DHT22;54193;53.746;10.058;2024-01-25T14:05:41;8.20;85.06
67279;DHT22;54193;53.746;10.058;2024-01-25T14:08:27;8.09;85.51
67279;DHT22;54193;53.746;10.058;2024-01-25T14:11:12;8.28;84.39
67279;DHT22;54193;53.746;10.058;2024-01-25T14:13:58;8.11;84.95
67279;DHT22;54193;53.746;10.058;2024-01-25T14:16:44;8.04;85.00
67279;DHT22;54193;53.746;10.058;2024-01-25T14:19:29;8.45;84.62
67279;DHT22;54193;53.746;10.058;2024-01-25T14:22:15;8.31;84.40
67279;DHT22;54193;53.746;10.058;2024-01-25T14:25:02;8.58;84.50
67279;DHT22;54193;53.746;10.058;2024-01-25T14:27:48;8.37;84.29
67279;DHT22;54193;53.746;10.058;2024-01-25T14:30:34;8.44;83.93
67279;DHT22;54193;53.746;10.058;2024-01-25T14:33:20;8.66;83.95
67279;DHT22;54193;53.746;10.058;2024-01-25T14:36:06;8.71;83.81
67279;DHT22;54193;53.746;10.058;2024-01-25T14:38:51;8.37;84.01
67279;DHT22;54193;53.746;10.058;2024-01-25T14:41:42;8.36;84.16
67279;DHT22;54193;53.746;10.058;2024-01-25T14:44:28;8.41;84.29
67279;DHT22;54193;53.746;10.058;2024-01-25T14:47:13;8.58;84.15
67279;DHT22;54193;53.746;10.058;2024-01-25T14:50:08;8.48;84.41
67279;DHT22;54193;53.746;10.058;2024-01-25T14:52:53;8.38;84.18
67279;DHT22;54193;53.746;10.058;2024-01-25T14:55:39;8.04;85.02
67279;DHT22;54193;53.746;10.058;2024-01-25T14:58:25;8.14;84.70
67279;DHT22;54193;53.746;10.058;2024-01-25T15:01:17;8.13;84.87
67279;DHT22;54193;53.746;10.058;2024-01-25T15:04:04;8.34;84.93
67279;DHT22;54193;53.746;10.058;2024-01-25T15:06:49;8.30;84.22
67279;DHT22;54193;53.746;10.058;2024-01-25T15:09:35;8.10;85.40
67279;DHT22;54193;53.746;10.058;2024-01-25T15:12:23;8.00;85.88
67279;DHT22;54193;53.746;10.058;2024-01-25T15:15:09;8.02;85.88
67279;DHT22;54193;53.746;10.058;2024-01-25T15:17:55;7.99;85.48
67279;DHT22;54193;53.746;10.058;2024-01-25T15:20:41;7.75;85.55
67279;DHT22;54193;53.746;10.058;2024-01-25T15:23:26;8.14;84.29
67279;DHT22;54193;53.746;10.058;2024-01-25T15:26:13;7.87;84.25
67279;DHT22;54193;53.746;10.058;2024-01-25T15:28:59;7.65;85.51
67279;DHT22;54193;53.746;10.058;2024-01-25T15:31:44;7.83;85.58
67279;DHT22;54193;53.746;10.058;2024-01-25T15:34:30;7.72;85.59
67279;DHT22;54193;53.746;10.058;2024-01-25T15:37:16;7.54;86.44
67279;DHT22;54193;53.746;10.058;2024-01-25T15:40:01;7.61;86.87
67279;DHT22;54193;53.746;10.058;2024-01-25T15:42:53;7.62;86.61
67279;DHT22;54193;53.746;10.058;2024-01-25T15:45:41;7.72;86.60
67279;DHT22;54193;53.746;10.058;2024-01-25T15:48:26;7.61;87.20
67279;DHT22;54193;53.746;10.058;2024-01-25T15:51:12;7.58;86.82
67279;DHT22;54193;53.746;10.058;2024-01-25T15:53:59;7.54;86.86
67279;DHT22;54193;53.746;10.058;2024-01-25T15:56:45;7.73;86.92
67279;DHT22;54193;53.746;10.058;2024-01-25T15:59:32;7.93;86.23
67279;DHT22;54193;53.746;10.058;2024-01-25T16:02:18;8.17;85.54
67279;DHT22;54193;53.746;10.058;2024-01-25T16:05:04;8.06;85.68
67279;DHT22;54193;53.746;10.058;2024-01-25T16:07:49;8.06;85.59
67279;DHT22;54193;53.746;10.058;2024-01-25T16:10:44;7.97;85.69
67279;DHT22;54193;53.746;10.058;2024-01-25T16:13:30;7.93;85.53
67279;DHT22;54193;53.746;10.058;2024-01-25T16:16:16;8.06;85.34
67279;DHT22;54193;53.746;10.058;2024-01-25T16:19:01;8.11;85.40
67279;DHT22;54193;53.746;10.058;2024-01-25T16:21:47;8.04;85.29
67279;DHT22;54193;53.746;10.058;2024-01-25T16:24:33;8.04;84.98
67279;DHT22;54193;53.746;10.058;2024-01-25T16:27:18;8.02;85.06
67279;DHT22;54193;53.746;10.058;2024-01-25T16:30:04;8.07;84.59
67279;DHT22;54193;53.746;10.058;2024-01-25T16:32:50;8.02;84.84
67279;DHT22;54193;53.746;10.058;2024-01-25T16:35:36;8.06;84.35
67279;DHT22;54193;53.746;10.058;2024-01-25T16:38:21;8.02;84.07
67279;DHT22;54193;53.746;10.058;2024-01-25T16:41:07;8.10;84.14
67279;DHT22;54193;53.746;10.058;2024-01-25T16:43:53;8.23;83.55
67279;DHT22;54193;53.746;10.058;2024-01-25T16:46:39;8.30;83.50
67279;DHT22;54193;53.746;10.058;2024-01-25T16:49:24;8.27;83.12
67279;DHT22;54193;53.746;10.058;2024-01-25T16:52:10;8.27;83.57
67279;DHT22;54193;53.746;10.058;2024-01-25T16:54:56;8.21;83.20
67279;DHT22;54193;53.746;10.058;2024-01-25T16:57:41;8.13;83.58
67279;DHT22;54193;53.746;10.058;2024-01-25T17:00:27;8.13;83.67
67279;DHT22;54193;53.746;10.058;2024-01-25T17:03:14;8.24;83.39
67279;DHT22;54193;53.746;10.058;2024-01-25T17:06:00;8.20;83.31
67279;DHT22;54193;53.746;10.058;2024-01-25T17:08:45;8.16;83.30
67279;DHT22;54193;53.746;10.058;2024-01-25T17:11:31;8.20;83.42
67279;DHT22;54193;53.746;10.058;2024-01-25T17:14:18;8.26;83.40
67279;DHT22;54193;53.746;10.058;2024-01-25T17:17:04;8.21;83.23
67279;DHT22;54193;53.746;10.058;2024-01-25T17:19:51;8.26;83.34
67279;DHT22;54193;53.746;10.058;2024-01-25T17:22:37;8.34;83.23
67279;DHT22;54193;53.746;10.058;2024-01-25T17:25:23;8.34;83.15
67279;DHT22;54193;53.746;10.058;2024-01-25T17:28:09;8.17;83.75